Time;durP1;ratioP1;P1;durP2;ratioP2;P2;SDS_P1;SDS_P2;PMS_P1;PMS_P2;Temp;Humidity;BMP_temperature;BMP_pressure;BME280_temperature;BME280_humidity;BME280_pressure;Samples;Min_cycle;Max_cycle;Signal;HPM_P1;HPM_P2
2021/05/03 07:45:50;;;;;;;0.93;0.10;;;17.20;68.20;;;15.99;57.79;101109.69;5054592;27;1579949;-59
2021/05/03 07:48:17;;;;;;;0.80;0.10;;;16.70;75.50;;;16.38;56.19;101104.56;5085141;28;20121;-53
2021/05/03 07:50:43;;;;;;;0.20;0.10;;;16.90;78.10;;;16.77;55.86;101108.13;5085944;28;20032;-55
2021/05/03 07:53:09;;;;;;;0.10;0.10;;;17.20;78.40;;;16.98;55.22;101117.25;5084965;28;20068;-52
2021/05/03 07:55:36;;;;;;;0.20;0.10;;;17.50;78.30;;;16.85;53.99;101112.53;5081949;28;20032;-55
2021/05/03 07:58:02;;;;;;;0.10;0.10;;;17.50;74.70;;;16.77;54.00;101120.44;5068343;28;20631;-54
2021/05/03 08:00:29;;;;;;;0.52;0.15;;;17.50;74.50;;;16.72;53.81;101118.31;5086584;28;20111;-57
2021/05/03 08:02:59;;;;;;;0.45;0.10;;;17.40;75.20;;;17.13;52.80;101124.25;5092918;28;20028;-53
2021/05/03 08:05:25;;;;;;;0.70;0.10;;;17.70;75.00;;;17.28;51.79;101115.63;5085023;28;20036;-56
2021/05/03 08:07:52;;;;;;;0.10;0.10;;;17.90;73.80;;;17.36;51.77;101119.06;5084679;28;20507;-58
2021/05/03 08:10:19;;;;;;;3.60;0.20;;;17.90;74.00;;;17.41;51.18;101119.38;5087479;28;20276;-53
2021/05/03 08:12:44;;;;;;;0.57;0.10;;;18.00;72.70;;;17.26;51.20;101115.81;5083712;28;20032;-50
2021/05/03 08:15:13;;;;;;;0.17;0.10;;;17.90;72.30;;;17.52;50.53;101128.66;5084071;28;20392;-54
2021/05/03 08:17:43;;;;;;;0.10;0.10;;;18.00;72.10;;;17.35;50.01;101120.03;5084179;28;20460;-55
2021/05/03 08:20:10;;;;;;;0.75;0.10;;;17.90;71.40;;;17.53;49.82;101117.94;5084024;28;20056;-55
2021/05/03 08:22:36;;;;;;;0.30;0.10;;;17.90;72.00;;;17.72;49.34;101119.34;5083989;28;20093;-55
2021/05/03 08:25:06;;;;;;;0.10;0.05;;;18.10;71.60;;;17.39;49.57;101116.06;5083559;28;20062;-51
2021/05/03 08:27:32;;;;;;;0.70;0.10;;;18.00;70.60;;;16.97;50.03;101115.63;5097870;28;20505;-54
2021/05/03 08:29:58;;;;;;;0.20;0.10;;;17.70;71.00;;;17.14;48.94;101120.63;5104898;28;20074;-54
2021/05/03 08:32:24;;;;;;;0.30;0.10;;;17.60;69.20;;;17.25;48.03;101120.25;5086308;28;20483;-55
2021/05/03 08:34:51;;;;;;;0.63;0.10;;;17.70;68.70;;;17.05;48.10;101123.47;5104220;28;20455;-56
2021/05/03 08:37:17;;;;;;;0.13;0.10;;;17.40;68.00;;;17.20;48.01;101119.94;5104222;28;20365;-54
2021/05/03 08:39:43;;;;;;;0.20;0.05;;;17.50;69.20;;;17.48;46.34;101128.22;5104339;28;20028;-54
2021/05/03 08:42:10;;;;;;;0.17;0.10;;;17.80;67.00;;;16.91;46.00;101123.22;5085811;28;20501;-54
2021/05/03 08:44:36;;;;;;;0.20;0.10;;;17.50;64.70;;;15.90;44.81;101127.25;5085367;28;20051;-56
2021/05/03 08:47:03;;;;;;;0.20;0.10;;;16.80;61.30;;;15.36;43.34;101132.03;5104187;28;20028;-53
2021/05/03 08:54:40;;;;;;;0.40;0.10;;;15.90;62.90;;;15.59;45.28;101124.44;5103823;28;20035;-53
2021/05/03 08:57:09;;;;;;;1.23;0.00;;;16.00;63.50;;;15.50;42.20;101120.09;5078436;28;20127;-52
2021/05/03 08:59:36;;;;;;;1.33;0.10;;;16.10;60.50;;;15.64;44.16;101122.13;5078481;28;20024;-58
2021/05/03 09:02:05;;;;;;;1.33;0.13;;;16.00;62.90;;;15.32;43.03;101125.47;5075701;28;20043;-56
2021/05/03 09:04:32;;;;;;;0.32;0.10;;;16.00;61.80;;;15.60;44.27;101118.16;5058084;28;20431;-53
2021/05/03 09:07:10;;;;;;;0.28;0.10;;;16.00;62.70;;;15.55;41.35;101118.63;5080475;28;20236;-55
2021/05/03 09:09:39;;;;;;;0.65;0.10;;;16.00;60.00;;;15.64;42.85;101116.03;5090254;28;20503;-54
2021/05/03 09:12:23;;;;;;;0.30;0.10;;;16.00;61.50;;;16.02;42.38;101125.13;5090230;28;20020;-55
2021/05/03 09:15:02;;;;;;;0.60;0.10;;;16.20;62.80;;;16.14;40.78;101111.47;5090411;28;20151;-56
2021/05/03 09:17:38;;;;;;;0.20;0.00;;;16.40;60.00;;;16.17;40.94;101116.41;5089926;28;20124;-53
2021/05/03 09:20:14;;;;;;;0.30;0.10;;;16.50;59.40;;;15.95;41.34;101108.38;5070519;28;20037;-52
2021/05/03 09:25:50;;;;;;;0.50;0.10;;;16.50;59.10;;;15.63;41.32;101109.97;5069569;28;20045;-56
2021/05/03 09:28:29;;;;;;;0.30;0.10;;;16.30;59.40;;;16.02;40.73;101107.56;5069434;28;20064;-56
2021/05/03 09:30:57;;;;;;;0.10;0.00;;;16.30;59.20;;;16.09;41.15;101103.25;5069595;28;20115;-56
2021/05/03 09:33:27;;;;;;;0.22;0.10;;;16.50;59.20;;;16.12;41.27;101102.94;5069049;28;20400;-57
2021/05/03 09:36:23;;;;;;;0.57;0.10;;;16.50;59.10;;;16.49;40.41;101104.22;5069170;28;20609;-54
2021/05/03 09:38:52;;;;;;;0.17;0.00;;;16.70;58.70;;;17.05;40.90;101097.13;5056522;28;20148;-57
2021/05/03 09:41:25;;;;;;;0.20;0.03;;;17.20;59.20;;;17.43;38.75;101101.56;5069001;28;20035;-53
2021/05/03 09:44:07;;;;;;;1.90;0.10;;;17.60;58.30;;;17.25;37.56;101101.00;5068762;28;20148;-56
2021/05/03 09:46:48;;;;;;;0.55;0.10;;;17.70;56.90;;;17.22;38.89;101101.34;5069118;28;20123;-54
2021/05/03 09:49:21;;;;;;;0.13;0.10;;;17.60;56.30;;;17.44;37.95;101103.22;5069199;28;20041;-56
2021/05/03 09:52:00;;;;;;;0.28;0.10;;;17.60;57.10;;;17.39;38.10;101094.19;5069097;28;20033;-55
2021/05/03 09:54:31;;;;;;;1.20;0.00;;;17.70;56.30;;;17.58;38.59;101106.88;5069661;28;20036;-54
2021/05/03 09:57:04;;;;;;;0.20;0.10;;;17.80;56.30;;;17.90;40.22;101096.16;5076772;28;20129;-56
2021/05/03 09:59:42;;;;;;;0.30;0.10;;;18.10;58.70;;;18.31;40.26;101090.53;5068844;28;20131;-54
2021/05/03 10:05:08;;;;;;;0.22;0.10;;;18.80;60.20;;;18.63;40.64;101094.66;5089140;28;20035;-55
2021/05/03 10:07:37;;;;;;;0.88;0.20;;;19.00;59.60;;;18.82;41.77;101094.13;5069661;28;20078;-55
2021/05/03 10:12:34;;;;;;;0.25;0.10;;;19.00;60.10;;;18.45;42.06;101084.44;5089147;28;20127;-54
2021/05/03 10:15:06;;;;;;;0.20;0.10;;;18.80;60.50;;;18.95;40.96;101082.06;5089075;28;20032;-57
2021/05/03 10:17:35;;;;;;;1.95;0.10;;;19.10;60.70;;;19.37;41.24;101076.09;5089062;28;20032;-56
2021/05/03 10:20:04;;;;;;;0.35;0.10;;;19.50;60.90;;;19.28;41.13;101071.91;5071040;28;20211;-56
2021/05/03 10:22:31;;;;;;;2.20;0.10;;;19.60;59.70;;;19.03;41.04;101079.34;5089071;28;20510;-57
2021/05/03 10:25:04;;;;;;;0.20;0.10;;;19.50;59.00;;;19.09;41.15;101076.78;5089015;28;20039;-55
2021/05/03 10:27:32;;;;;;;1.67;0.10;;;19.40;59.80;;;19.39;40.88;101082.78;5088912;28;20550;-55
2021/05/03 10:30:09;;;;;;;0.15;0.10;;;19.60;59.60;;;19.23;38.70;101075.13;5082071;28;20028;-55
2021/05/03 10:32:36;;;;;;;3.08;0.10;;;19.60;56.40;;;18.58;41.32;101075.88;5068448;28;20044;-56
2021/05/03 10:35:05;;;;;;;0.57;0.10;;;19.30;58.00;;;18.99;41.22;101073.59;5056806;28;20507;-54
2021/05/03 10:37:34;;;;;;;0.10;0.00;;;19.30;59.30;;;18.94;38.96;101070.69;5088706;28;20119;-56
2021/05/03 10:40:28;;;;;;;0.40;0.10;;;19.40;55.50;;;19.11;32.84;101072.13;5074749;28;20495;-50
2021/05/03 10:43:07;;;;;;;2.75;0.10;;;19.50;49.80;;;17.54;35.93;101069.53;5040887;28;20437;-55
2021/05/03 10:47:00;;;;;;;0.10;0.00;;;18.70;52.00;;;16.64;38.55;101062.25;5069741;28;20120;-52
2021/05/03 10:49:21;;;;;;;0.20;0.10;;;17.70;53.00;;;16.24;36.87;101072.69;5062679;28;20040;-55
2021/05/03 10:51:57;;;;;;;1.38;0.10;;;17.10;50.70;;;16.18;36.46;101073.34;5069977;28;20064;-52
2021/05/03 10:54:31;;;;;;;1.40;0.03;;;16.70;51.80;;;17.16;34.39;101057.28;5088771;28;20040;-57
2021/05/03 10:57:07;;;;;;;1.85;0.08;;;17.20;50.30;;;18.07;34.91;101065.19;5067177;28;20779;-58
2021/05/03 10:59:52;;;;;;;0.40;0.00;;;18.00;52.10;;;18.57;37.68;101064.50;5064742;28;20336;-56
2021/05/03 11:02:20;;;;;;;0.43;0.10;;;18.60;55.20;;;18.95;38.65;101055.66;5070892;28;20072;-54
2021/05/03 11:05:26;;;;;;;0.30;0.10;;;19.00;56.60;;;19.01;38.53;101060.22;5068037;28;20033;-56
2021/05/03 11:08:04;;;;;;;1.38;0.00;;;19.40;55.70;;;19.01;39.26;101055.75;4966617;28;20039;-54
2021/05/03 11:11:03;;;;;;;1.13;0.10;;;19.40;57.20;;;19.16;37.68;101053.09;4966707;28;20137;-54
2021/05/03 11:13:39;;;;;;;0.30;0.10;;;19.40;55.80;;;19.27;38.75;101049.97;4966297;28;20038;-55
2021/05/03 11:16:30;;;;;;;0.30;0.10;;;19.60;56.50;;;19.40;38.08;101042.16;4966372;28;20752;-55
2021/05/03 11:19:00;;;;;;;0.22;0.10;;;19.70;55.70;;;19.65;38.32;101041.81;4982234;28;20205;-55
2021/05/03 11:21:46;;;;;;;0.30;0.10;;;19.90;55.40;;;19.58;35.63;101028.53;4980347;28;20079;-55
2021/05/03 11:24:27;;;;;;;0.50;0.10;;;20.00;53.20;;;19.67;37.30;101034.50;4982899;28;20043;-58
2021/05/03 11:27:05;;;;;;;1.45;0.15;;;19.90;55.30;;;19.69;37.47;101017.47;4984765;28;20117;-56
2021/05/03 11:29:40;;;;;;;0.80;0.10;;;20.10;53.70;;;19.67;37.86;101018.66;4985219;28;20050;-54
2021/05/03 11:32:08;;;;;;;0.30;0.10;;;20.10;53.90;;;19.93;37.19;101026.78;4985650;28;20042;-55
2021/05/03 11:35:11;;;;;;;1.25;0.10;;;20.30;54.50;;;20.28;37.23;101018.91;4985562;28;20497;-55
2021/05/03 11:46:33;;;;;;;2.42;0.10;;;20.50;53.10;;;20.24;36.47;101015.00;5088245;28;20138;-54
2021/05/03 11:49:10;;;;;;;0.10;0.10;;;20.60;53.30;;;20.27;33.80;101009.31;5088030;28;20036;-52
2021/05/03 11:51:51;;;;;;;0.40;0.05;;;20.70;51.60;;;20.24;34.63;101010.53;5087716;28;20044;-56
2021/05/03 11:54:32;;;;;;;0.88;0.10;;;20.60;52.10;;;19.86;33.94;100999.47;5077516;28;20036;-55
2021/05/03 11:57:09;;;;;;;1.65;0.10;;;20.50;50.40;;;19.96;35.90;100994.66;5083550;28;20155;-53
2021/05/03 11:59:36;;;;;;;0.30;0.10;;;20.30;52.70;;;20.16;37.21;100990.34;5067339;28;20033;-53
2021/05/03 12:02:14;;;;;;;1.10;0.10;;;20.50;54.10;;;19.79;36.57;101001.28;5067009;28;20145;-53
2021/05/03 12:04:47;;;;;;;0.10;0.00;;;20.30;52.80;;;19.97;34.23;100987.56;5066752;28;20055;-54
2021/05/03 12:07:16;;;;;;;0.52;0.10;;;20.40;51.10;;;19.36;36.38;100996.00;5066914;28;20039;-52
2021/05/03 12:09:44;;;;;;;0.10;0.10;;;20.00;51.50;;;19.34;35.32;100994.56;5048972;28;20521;-54
2021/05/03 12:12:12;;;;;;;1.38;0.10;;;20.00;50.50;;;19.19;36.04;100999.88;5066871;28;20103;-51
2021/05/03 12:14:49;;;;;;;0.17;0.03;;;19.60;51.80;;;18.92;33.67;101000.59;5066617;28;20185;-53
2021/05/03 12:17:24;;;;;;;0.32;0.10;;;19.40;49.10;;;19.59;35.96;100995.00;5067039;28;20032;-54
2021/05/03 12:19:56;;;;;;;0.38;0.10;;;19.70;52.60;;;19.81;34.81;101001.91;5066684;28;20439;-53
2021/05/03 12:22:24;;;;;;;1.25;0.10;;;20.10;51.30;;;19.91;35.13;100996.25;5048643;28;20043;-55
2021/05/03 12:24:54;;;;;;;0.25;0.10;;;20.20;51.70;;;20.39;34.50;100986.59;5066672;28;20493;-53
2021/05/03 12:27:20;;;;;;;0.80;0.10;;;20.60;51.30;;;20.04;34.02;100983.94;5074747;28;20036;-52
2021/05/03 12:29:47;;;;;;;1.00;0.30;;;20.60;48.60;;;19.78;34.53;100974.03;5074316;28;20044;-52
2021/05/03 12:32:17;;;;;;;2.42;0.00;;;20.30;49.90;;;20.17;34.58;100981.38;5069733;28;20025;-53
2021/05/03 12:34:51;;;;;;;0.10;0.00;;;20.40;50.80;;;20.60;33.17;100983.88;5069964;28;20050;-55
2021/05/03 12:37:21;;;;;;;1.65;0.10;;;20.80;49.90;;;20.80;33.26;100970.69;5074157;28;20024;-54
2021/05/03 12:40:06;;;;;;;0.20;0.10;;;21.10;49.50;;;21.18;32.02;100968.34;5069979;28;20553;-54
2021/05/03 12:43:03;;;;;;;0.20;0.10;;;21.50;48.90;;;21.43;31.68;100977.34;5069882;28;20132;-54
2021/05/03 12:46:06;;;;;;;;;;;21.80;49.10;;;20.96;28.75;100961.56;5061950;28;20055;-55
2021/05/03 13:22:30;;;;;;;1.30;0.10;;;21.10;45.90;;;20.50;32.10;100956.94;5070990;28;21321;-49
2021/05/03 13:29:08;;;;;;;2.53;0.10;;;20.70;46.70;;;20.32;32.08;100948.69;5074103;28;20044;-49
2021/05/03 13:31:36;;;;;;;0.30;0.20;;;20.90;46.90;;;21.03;31.25;100949.16;5070420;28;20051;-54
2021/05/03 13:34:09;;;;;;;3.00;0.10;;;21.30;46.60;;;21.72;29.60;100940.84;5069783;28;20056;-53
2021/05/03 13:36:37;;;;;;;0.40;0.10;;;21.90;45.60;;;21.25;30.05;100948.00;5070011;28;20043;-48
2021/05/03 13:39:09;;;;;;;0.20;0.00;;;22.00;44.50;;;20.91;30.09;100940.16;5069145;28;20353;-52
2021/05/03 13:41:41;;;;;;;0.30;0.08;;;21.90;44.50;;;20.76;30.12;100935.06;5089469;28;20032;-49
2021/05/03 13:44:10;;;;;;;1.95;0.08;;;21.40;44.40;;;21.26;30.09;100933.72;5079777;28;20149;-50
2021/05/03 13:46:37;;;;;;;0.52;0.10;;;21.70;44.90;;;21.06;29.14;100935.50;5069243;28;20033;-48
2021/05/03 13:49:05;;;;;;;0.20;0.00;;;21.90;43.00;;;20.34;30.01;100930.78;5069174;28;20041;-52
2021/05/03 13:51:32;;;;;;;0.40;0.10;;;21.30;43.20;;;20.73;29.92;100928.31;5069127;28;20400;-49
2021/05/03 13:53:58;;;;;;;0.10;0.00;;;21.30;44.10;;;21.09;29.40;100924.50;5069353;28;20036;-50
2021/05/03 13:56:25;;;;;;;0.30;0.10;;;21.60;44.10;;;20.87;29.35;100919.38;5069511;28;20028;-51
2021/05/03 13:58:51;;;;;;;0.40;0.10;;;21.70;43.30;;;20.94;29.21;100923.88;5080161;28;20036;-51
2021/05/03 14:01:17;;;;;;;0.30;0.00;;;21.60;42.40;;;20.90;30.06;100914.69;5067593;28;20137;-53
2021/05/03 14:03:43;;;;;;;0.20;0.00;;;21.70;44.30;;;21.07;28.94;100915.94;5087671;28;20036;-53
2021/05/03 14:06:17;;;;;;;0.80;0.00;;;21.80;42.80;;;21.00;28.57;100910.63;5086826;28;20028;-51
2021/05/03 14:08:44;;;;;;;0.60;0.10;;;21.80;43.00;;;21.32;29.07;100917.00;5089107;28;20514;-49
2021/05/03 14:11:10;;;;;;;0.10;0.03;;;22.00;43.20;;;20.63;29.02;100908.53;5089008;28;20074;-50
2021/05/03 14:13:38;;;;;;;0.30;0.00;;;21.80;41.50;;;20.60;29.52;100903.63;5079770;28;20070;-52
2021/05/03 14:16:06;;;;;;;0.10;0.10;;;21.40;43.30;;;20.62;30.09;100902.41;5069056;28;20504;-53
2021/05/03 14:18:32;;;;;;;0.20;0.10;;;21.40;44.10;;;20.98;29.82;100902.06;5068722;28;20039;-52
2021/05/03 14:21:06;;;;;;;0.50;0.00;;;21.60;44.10;;;21.07;29.31;100900.03;5068776;28;20056;-53
2021/05/03 14:23:32;;;;;;;0.30;0.10;;;21.80;43.30;;;21.22;29.22;100897.25;5068415;28;20459;-48
2021/05/03 14:25:58;;;;;;;3.33;0.10;;;21.80;43.40;;;21.07;29.25;100897.41;5068319;28;20033;-52
2021/05/03 14:31:03;;;;;;;0.40;0.10;;;21.90;42.30;;;20.85;29.53;100897.56;5068221;28;20048;-53
2021/05/03 14:33:33;;;;;;;0.20;0.00;;;21.60;42.70;;;21.05;29.33;100886.19;5068368;28;20673;-54
2021/05/03 14:36:03;;;;;;;0.30;0.00;;;21.70;43.30;;;21.01;29.04;100891.06;5068174;28;20359;-50
2021/05/03 14:38:30;;;;;;;0.32;0.00;;;21.70;42.80;;;20.72;29.01;100894.09;5067854;28;20028;-51
2021/05/03 14:40:56;;;;;;;0.28;0.10;;;21.50;41.90;;;20.50;29.27;100890.78;5068281;28;20082;-51
2021/05/03 14:43:22;;;;;;;0.25;0.10;;;21.10;42.80;;;20.33;29.56;100892.91;5067931;28;20064;-50
2021/05/03 14:45:57;;;;;;;0.20;0.00;;;20.90;43.30;;;20.93;29.31;100895.75;5067657;28;20099;-56
2021/05/03 14:51:14;;;;;;;1.02;0.10;;;21.60;43.30;;;21.40;28.98;100887.63;5068010;28;20047;-52
2021/05/03 14:56:06;;;;;;;0.15;0.00;;;21.90;42.50;;;21.05;28.81;100881.72;5068038;28;20047;-55
2021/05/03 14:58:33;;;;;;;0.50;0.10;;;21.80;42.30;;;20.65;28.42;100877.38;5067743;28;20037;-48
2021/05/03 15:01:00;;;;;;;0.63;0.00;;;21.50;41.50;;;20.44;28.64;100879.16;5067726;28;20067;-48
2021/05/03 15:03:26;;;;;;;0.88;0.10;;;21.20;42.30;;;20.64;28.58;100873.91;5067575;28;20040;-51
2021/05/03 15:05:59;;;;;;;4.43;0.03;;;21.20;42.60;;;20.91;28.54;100860.69;5067561;28;20031;-53
2021/05/03 15:08:27;;;;;;;1.58;0.10;;;21.40;42.30;;;20.95;29.01;100873.34;5067988;28;20041;-56
2021/05/03 15:10:53;;;;;;;0.50;0.10;;;21.50;43.00;;;20.94;28.83;100865.59;5067480;28;20079;-54
2021/05/03 15:13:22;;;;;;;1.17;0.10;;;21.60;42.50;;;20.81;28.61;100864.56;5067847;28;20082;-54
2021/05/03 15:16:01;;;;;;;0.10;0.00;;;21.50;42.10;;;20.98;28.59;100864.16;5067554;28;20149;-51
2021/05/03 15:23:46;;;;;;;0.08;0.00;;;22.00;42.80;;;21.38;28.64;100860.53;5067609;28;20063;-53
2021/05/03 15:26:18;;;;;;;0.20;0.10;;;22.00;42.20;;;21.51;28.86;100860.50;5067283;28;20497;-50
2021/05/03 15:34:07;;;;;;;0.20;0.10;;;22.20;43.70;;;21.40;29.28;100853.19;5067223;28;20036;-51
2021/05/03 15:36:34;;;;;;;1.85;0.00;;;22.10;43.10;;;21.20;29.82;100855.03;5067216;28;20364;-54
2021/05/03 15:39:04;;;;;;;0.43;0.10;;;21.90;43.50;;;21.16;29.97;100851.16;5067091;28;20115;-56
2021/05/03 15:41:30;;;;;;;0.55;0.00;;;21.80;43.60;;;21.02;29.77;100850.31;5067231;28;20029;-52
2021/05/03 15:43:56;;;;;;;3.22;0.10;;;21.70;43.40;;;20.90;29.33;100854.59;5072068;28;20523;-50
2021/05/03 15:46:22;;;;;;;0.63;0.10;;;21.60;43.00;;;20.47;29.80;100851.47;5081557;28;20044;-52
2021/05/03 15:48:48;;;;;;;1.50;0.10;;;21.30;43.20;;;20.51;30.32;100850.06;5085958;28;20426;-53
2021/05/03 15:51:16;;;;;;;0.20;0.10;;;21.10;44.00;;;20.67;30.19;100849.69;5084113;28;20110;-52
2021/05/03 15:53:43;;;;;;;0.25;0.00;;;21.20;44.30;;;20.92;29.77;100854.38;5067251;28;20204;-52
2021/05/03 15:56:09;;;;;;;3.80;1.00;;;21.50;44.00;;;21.01;29.51;100851.34;5066867;28;20062;-51
2021/05/03 15:58:36;;;;;;;2.70;0.10;;;21.60;43.50;;;20.34;30.32;100843.44;5066967;28;20043;-49
2021/05/03 16:01:03;;;;;;;1.95;0.10;;;21.30;43.60;;;19.82;30.48;100848.34;5066804;28;20032;-49
2021/05/03 16:03:30;;;;;;;5.82;0.15;;;20.80;43.30;;;19.72;30.82;100852.38;5067231;28;20059;-50
2021/05/03 16:05:56;;;;;;;0.50;0.10;;;20.50;44.20;;;19.93;30.75;100854.09;5067965;28;20032;-54
2021/05/03 16:08:22;;;;;;;6.03;0.10;;;20.50;44.60;;;19.61;30.34;100850.25;5076409;28;20036;-52
2021/05/03 16:10:48;;;;;;;0.75;0.03;;;20.40;43.40;;;19.80;29.50;100849.56;5075683;28;20040;-49
2021/05/03 16:13:14;;;;;;;0.10;0.10;;;20.30;43.10;;;19.52;29.52;100847.75;5070954;28;20048;-52
2021/05/03 16:15:40;;;;;;;4.65;0.10;;;20.20;42.90;;;19.54;30.28;100845.75;5071699;28;20043;-48
2021/05/03 16:18:06;;;;;;;0.85;0.00;;;20.20;43.60;;;19.46;30.87;100847.69;5071344;28;20025;-50
2021/05/03 16:20:33;;;;;;;0.90;0.10;;;20.10;44.40;;;19.40;31.66;100849.25;5070546;28;20040;-51
2021/05/03 16:22:59;;;;;;;3.97;0.10;;;20.10;45.20;;;19.40;31.52;100845.81;5053750;28;20033;-57
2021/05/03 16:25:26;;;;;;;3.08;0.10;;;20.00;44.90;;;19.69;30.51;100850.09;5078588;28;20040;-51
2021/05/03 16:27:52;;;;;;;2.30;0.05;;;20.10;44.50;;;19.59;30.19;100842.53;5079402;28;20075;-55
2021/05/03 16:30:19;;;;;;;0.35;0.03;;;20.20;43.30;;;19.59;29.82;100836.41;5083347;28;20028;-52
2021/05/03 16:32:45;;;;;;;0.88;0.45;;;20.20;43.30;;;19.68;29.72;100835.25;5052873;28;20047;-53
2021/05/03 16:35:13;;;;;;;0.40;0.00;;;20.10;43.50;;;19.37;29.91;100836.47;5070820;28;20040;-48
2021/05/03 16:37:44;;;;;;;2.55;0.10;;;20.00;43.40;;;19.28;30.44;100840.25;5074857;28;20542;-50
2021/05/03 16:40:14;;;;;;;1.48;0.05;;;19.90;43.80;;;19.06;31.41;100844.75;5070726;28;20076;-53
2021/05/03 16:42:42;;;;;;;0.55;0.00;;;19.70;44.80;;;19.13;31.69;100840.34;5055530;28;20056;-53
2021/05/03 16:45:10;;;;;;;2.70;0.10;;;19.80;45.20;;;19.08;31.92;100834.81;5071086;28;20048;-50
2021/05/03 16:47:36;;;;;;;0.10;0.10;;;19.70;45.50;;;18.83;32.54;100841.53;5070722;28;20127;-48
2021/05/03 16:50:03;;;;;;;0.10;0.00;;;19.60;45.70;;;18.56;32.28;100840.41;5073800;28;20127;-50
2021/05/03 16:52:29;;;;;;;0.50;0.10;;;19.30;45.00;;;18.39;32.19;100841.66;5086690;28;20051;-50
2021/05/03 16:54:55;;;;;;;2.28;0.08;;;19.10;45.30;;;18.20;32.80;100846.50;5074922;28;20047;-47
2021/05/03 16:57:21;;;;;;;0.10;0.08;;;18.90;46.00;;;18.08;33.22;100842.69;5051556;28;20372;-51
2021/05/03 16:59:47;;;;;;;2.40;0.10;;;18.80;46.40;;;17.90;33.11;100842.28;5072719;28;20062;-51
2021/05/03 17:02:13;;;;;;;0.75;0.00;;;18.60;46.50;;;17.76;32.76;100846.56;5076383;28;20136;-51
2021/05/03 17:04:39;;;;;;;1.92;0.30;;;18.40;46.10;;;17.69;33.51;100844.81;5069662;28;20543;-53
2021/05/03 17:07:05;;;;;;;0.40;0.17;;;18.30;46.70;;;17.54;34.50;100842.97;5069988;28;20040;-51
2021/05/03 17:09:32;;;;;;;0.80;0.20;;;18.20;47.70;;;17.55;34.74;100856.97;5069952;28;20396;-51
2021/05/03 17:11:58;;;;;;;0.20;0.10;;;18.20;48.10;;;17.52;34.60;100852.88;5067901;28;20549;-53
2021/05/03 17:14:24;;;;;;;2.20;0.30;;;18.10;48.00;;;17.45;34.99;100851.97;5070000;28;20036;-53
2021/05/03 17:16:51;;;;;;;3.33;0.40;;;18.10;48.30;;;17.38;34.69;100856.31;5069525;28;20028;-55
2021/05/03 17:19:17;;;;;;;4.05;0.82;;;18.00;48.20;;;17.36;35.43;100860.94;5070115;28;20028;-56
2021/05/03 17:21:44;;;;;;;6.90;0.20;;;17.90;49.10;;;17.24;35.84;100860.56;5069785;28;20129;-56
2021/05/03 17:24:11;;;;;;;0.73;0.10;;;17.90;49.40;;;17.11;36.19;100855.06;5069619;28;20082;-53
2021/05/03 17:26:37;;;;;;;7.28;0.20;;;17.80;49.40;;;16.98;37.05;100856.69;5069442;28;20071;-51
2021/05/03 17:29:05;;;;;;;15.55;0.60;;;17.70;50.20;;;16.87;37.74;100856.09;5069697;28;20048;-53
2021/05/03 17:31:38;;;;;;;1.15;0.20;;;17.50;51.30;;;16.73;38.34;100859.47;5069759;28;20119;-56
2021/05/03 17:34:05;;;;;;;0.45;0.10;;;17.40;51.80;;;16.59;39.02;100861.00;5069581;28;20051;-52
2021/05/03 17:36:32;;;;;;;0.43;0.20;;;17.20;52.20;;;16.47;40.29;100872.13;5069430;28;20036;-54
2021/05/03 17:39:08;;;;;;;1.80;0.20;;;17.10;53.70;;;16.33;41.18;100878.09;5069185;28;20377;-53
2021/05/03 17:41:34;;;;;;;;;;;17.00;54.40;;;16.21;45.10;100875.84;5069924;28;20051;-55
2021/05/03 17:44:03;;;;;;;3.70;0.20;;;16.90;58.30;;;16.02;43.10;100883.34;5069364;28;20358;-53
2021/05/03 17:46:32;;;;;;;7.88;0.50;;;16.70;57.10;;;15.83;45.70;100889.78;5069243;28;20531;-54
2021/05/03 17:48:59;;;;;;;3.80;0.25;;;16.50;60.20;;;15.57;47.69;100901.34;5069249;28;20489;-56
2021/05/03 17:51:26;;;;;;;4.07;0.40;;;16.30;62.10;;;15.38;48.78;100906.91;5068956;28;20047;-52
2021/05/03 17:53:52;;;;;;;11.98;0.60;;;16.10;63.00;;;15.33;49.35;100911.81;5069154;28;20516;-55
2021/05/03 17:56:20;;;;;;;10.25;0.68;;;16.00;63.90;;;15.24;49.32;100904.94;5069179;28;20037;-53
2021/05/03 17:58:50;;;;;;;2.85;0.30;;;15.90;64.00;;;15.27;48.34;100904.59;5069008;28;20021;-51
2021/05/03 18:01:16;;;;;;;1.63;0.20;;;15.90;62.70;;;15.20;48.92;100908.88;5069014;28;20033;-56
2021/05/03 18:03:42;;;;;;;3.65;0.20;;;15.80;63.80;;;15.14;49.27;100912.13;5068964;28;20036;-55
2021/05/03 18:06:10;;;;;;;3.20;0.38;;;15.80;64.10;;;15.08;49.64;100920.69;5068826;28;20043;-54
2021/05/03 18:08:36;;;;;;;3.50;0.32;;;15.70;64.50;;;15.04;49.35;100916.75;5068959;28;20067;-50
2021/05/03 18:11:05;;;;;;;1.88;0.30;;;15.70;64.40;;;15.00;49.34;100929.38;5069021;28;20104;-48
2021/05/03 18:13:32;;;;;;;8.35;0.57;;;15.60;64.30;;;14.97;49.19;100926.25;5068526;28;20117;-48
2021/05/03 18:15:58;;;;;;;4.47;0.30;;;15.50;64.20;;;14.97;49.55;100919.19;5068500;28;20036;-54
2021/05/03 18:18:25;;;;;;;11.68;0.30;;;15.50;64.40;;;14.91;49.62;100936.41;5068868;28;20032;-54
2021/05/03 18:23:41;;;;;;;2.45;0.43;;;15.40;65.00;;;14.76;50.02;100932.75;5075313;28;20190;-53
2021/05/03 18:26:07;;;;;;;6.35;0.30;;;15.40;65.20;;;14.69;50.08;100933.53;5066993;28;20039;-53
2021/05/03 18:28:35;;;;;;;2.05;0.17;;;15.30;65.30;;;14.65;50.13;100934.88;5067499;28;20064;-53
2021/05/03 18:31:02;;;;;;;4.22;0.30;;;15.20;65.40;;;14.52;51.08;100935.31;5086906;28;20078;-54
2021/05/03 18:33:29;;;;;;;2.58;0.20;;;15.10;66.50;;;14.43;51.49;100944.94;5076327;28;20036;-51
2021/05/03 18:35:55;;;;;;;0.82;0.10;;;15.10;67.20;;;14.34;51.74;100947.66;5072193;28;20089;-52
2021/05/03 18:38:21;;;;;;;0.65;0.20;;;15.00;67.60;;;14.26;52.33;100943.19;5088451;28;20433;-54
2021/05/03 18:40:47;;;;;;;1.38;0.20;;;14.90;68.40;;;14.21;52.04;100948.06;5084388;28;20103;-52
2021/05/03 18:43:13;;;;;;;1.08;0.30;;;14.80;68.30;;;14.20;52.50;100947.25;5071313;28;20051;-53
2021/05/03 18:45:39;;;;;;;2.40;0.30;;;14.80;68.80;;;14.14;52.63;100950.53;5086754;28;20048;-49
2021/05/03 18:48:06;;;;;;;0.80;0.17;;;14.80;69.10;;;14.06;53.00;100953.09;5087663;28;20031;-50
2021/05/03 18:50:33;;;;;;;0.52;0.20;;;14.70;69.60;;;13.93;54.35;100965.78;5065890;28;20152;-52
2021/05/03 18:52:59;;;;;;;7.70;0.40;;;14.50;71.10;;;13.72;55.66;100965.28;5070148;28;20396;-51
2021/05/03 18:55:27;;;;;;;14.20;0.60;;;14.40;72.60;;;13.53;56.55;100975.00;5067701;28;20043;-53
2021/05/03 18:57:53;;;;;;;10.38;0.50;;;14.20;74.50;;;13.46;56.69;100973.94;5068161;28;20045;-51
2021/05/03 19:00:20;;;;;;;7.07;0.50;;;14.10;74.50;;;13.38;56.96;100986.97;5068194;28;20168;-52
2021/05/03 19:02:46;;;;;;;7.72;0.47;;;14.00;75.40;;;13.35;57.40;100982.03;5074326;28;20208;-51
2021/05/03 19:05:13;;;;;;;2.55;0.45;;;13.90;76.40;;;13.26;57.39;100988.16;5067710;28;20070;-50
2021/05/03 19:07:39;;;;;;;2.13;0.40;;;13.90;76.90;;;13.34;57.20;100985.63;5081096;28;20133;-50
2021/05/03 19:10:09;;;;;;;13.13;0.98;;;13.90;77.20;;;13.26;57.94;100982.91;5081983;28;20123;-51
2021/05/03 19:12:36;;;;;;;4.68;0.40;;;13.90;78.80;;;13.19;58.08;101000.22;5079200;28;20391;-48
2021/05/03 19:15:05;;;;;;;2.92;0.35;;;13.80;79.70;;;13.20;58.34;100994.81;5087733;28;20149;-50
2021/05/03 19:17:31;;;;;;;3.08;0.77;;;13.80;80.80;;;13.02;59.41;101000.97;5081479;28;20032;-49
2021/05/03 19:19:57;;;;;;;7.63;0.40;;;13.70;83.70;;;12.90;59.97;100993.31;5086112;28;20055;-51
2021/05/03 19:22:23;;;;;;;6.10;0.50;;;13.60;85.20;;;12.84;60.10;100999.13;5080243;28;20051;-50
2021/05/03 19:24:49;;;;;;;1.50;0.50;;;13.50;86.90;;;12.82;59.98;101006.31;5071173;28;20090;-52
2021/05/03 19:27:15;;;;;;;4.15;0.73;;;13.40;88.20;;;12.78;59.98;101004.94;5076625;28;20120;-51
2021/05/03 19:29:41;;;;;;;4.30;1.20;;;13.40;88.80;;;12.69;60.41;101008.47;5069019;28;20594;-53
2021/05/03 19:34:37;;;;;;;3.42;0.73;;;13.20;91.10;;;12.58;60.55;101006.84;5088510;28;20141;-53